sensor_id;sensor_type;location;lat;lon;timestamp;P1;durP1;ratioP1;P2;durP2;ratioP2
39208;SDS011;24929;51.982;4.664;2023-04-25T00:00:42;10.32;;;4.43;;
39208;SDS011;24929;51.982;4.664;2023-04-25T00:03:08;14.98;;;3.72;;
39208;SDS011;24929;51.982;4.664;2023-04-25T00:05:33;25.73;;;5.15;;
39208;SDS011;24929;51.982;4.664;2023-04-25T00:08:02;16.70;;;4.68;;
39208;SDS011;24929;51.982;4.664;2023-04-25T00:10:27;16.15;;;4.53;;
39208;SDS011;24929;51.982;4.664;2023-04-25T00:12:53;13.25;;;4.10;;
39208;SDS011;24929;51.982;4.664;2023-04-25T00:15:18;9.60;;;3.80;;
39208;SDS011;24929;51.982;4.664;2023-04-25T00:17:44;17.50;;;4.65;;
39208;SDS011;24929;51.982;4.664;2023-04-25T00:20:10;21.98;;;5.18;;
39208;SDS011;24929;51.982;4.664;2023-04-25T00:22:36;8.18;;;3.30;;
39208;SDS011;24929;51.982;4.664;2023-04-25T00:25:05;13.38;;;4.82;;
39208;SDS011;24929;51.982;4.664;2023-04-25T00:27:31;11.80;;;2.92;;
39208;SDS011;24929;51.982;4.664;2023-04-25T00:29:57;13.05;;;4.47;;
39208;SDS011;24929;51.982;4.664;2023-04-25T00:32:23;5.80;;;3.30;;
39208;SDS011;24929;51.982;4.664;2023-04-25T00:34:48;9.10;;;3.42;;
39208;SDS011;24929;51.982;4.664;2023-04-25T00:37:14;9.90;;;3.63;;
39208;SDS011;24929;51.982;4.664;2023-04-25T00:39:39;9.65;;;3.20;;
39208;SDS011;24929;51.982;4.664;2023-04-25T00:42:05;8.18;;;3.78;;
39208;SDS011;24929;51.982;4.664;2023-04-25T00:44:31;14.60;;;3.83;;
39208;SDS011;24929;51.982;4.664;2023-04-25T00:46:57;15.13;;;4.60;;
39208;SDS011;24929;51.982;4.664;2023-04-25T00:49:22;9.32;;;3.72;;
39208;SDS011;24929;51.982;4.664;2023-04-25T00:51:48;19.73;;;3.92;;
39208;SDS011;24929;51.982;4.664;2023-04-25T00:54:14;18.10;;;4.78;;
39208;SDS011;24929;51.982;4.664;2023-04-25T00:56:40;14.35;;;4.22;;
39208;SDS011;24929;51.982;4.664;2023-04-25T00:59:06;13.05;;;4.35;;
39208;SDS011;24929;51.982;4.664;2023-04-25T01:01:32;11.68;;;3.83;;
39208;SDS011;24929;51.982;4.664;2023-04-25T01:03:58;8.82;;;3.67;;
39208;SDS011;24929;51.982;4.664;2023-04-25T01:06:24;13.07;;;3.65;;
39208;SDS011;24929;51.982;4.664;2023-04-25T01:08:49;9.25;;;2.92;;
39208;SDS011;24929;51.982;4.664;2023-04-25T01:11:16;7.07;;;2.78;;
39208;SDS011;24929;51.982;4.664;2023-04-25T01:13:42;9.55;;;3.35;;
39208;SDS011;24929;51.982;4.664;2023-04-25T01:16:07;8.02;;;2.63;;
39208;SDS011;24929;51.982;4.664;2023-04-25T01:18:33;12.27;;;3.33;;
39208;SDS011;24929;51.982;4.664;2023-04-25T01:21:08;5.93;;;3.33;;
39208;SDS011;24929;51.982;4.664;2023-04-25T01:23:35;18.27;;;3.95;;
39208;SDS011;24929;51.982;4.664;2023-04-25T01:26:01;13.43;;;2.67;;
39208;SDS011;24929;51.982;4.664;2023-04-25T01:28:27;4.55;;;2.90;;
39208;SDS011;24929;51.982;4.664;2023-04-25T01:30:53;12.20;;;2.95;;
39208;SDS011;24929;51.982;4.664;2023-04-25T01:33:19;6.65;;;2.70;;
39208;SDS011;24929;51.982;4.664;2023-04-25T01:35:46;7.10;;;2.28;;
39208;SDS011;24929;51.982;4.664;2023-04-25T01:38:12;10.98;;;2.63;;
39208;SDS011;24929;51.982;4.664;2023-04-25T01:40:38;7.28;;;3.30;;
39208;SDS011;24929;51.982;4.664;2023-04-25T01:43:05;3.42;;;2.10;;
39208;SDS011;24929;51.982;4.664;2023-04-25T01:45:31;7.32;;;3.67;;
39208;SDS011;24929;51.982;4.664;2023-04-25T01:47:56;8.82;;;3.30;;
39208;SDS011;24929;51.982;4.664;2023-04-25T01:50:24;6.95;;;4.97;;
39208;SDS011;24929;51.982;4.664;2023-04-25T01:52:50;13.15;;;4.13;;
39208;SDS011;24929;51.982;4.664;2023-04-25T01:55:16;11.90;;;2.50;;
39208;SDS011;24929;51.982;4.664;2023-04-25T01:57:41;15.07;;;3.22;;
39208;SDS011;24929;51.982;4.664;2023-04-25T02:00:07;10.10;;;3.60;;
39208;SDS011;24929;51.982;4.664;2023-04-25T02:02:34;4.32;;;2.63;;
39208;SDS011;24929;51.982;4.664;2023-04-25T02:05:00;5.30;;;2.22;;
39208;SDS011;24929;51.982;4.664;2023-04-25T02:07:25;11.68;;;2.65;;
39208;SDS011;24929;51.982;4.664;2023-04-25T02:09:51;3.65;;;1.98;;
39208;SDS011;24929;51.982;4.664;2023-04-25T02:12:17;7.57;;;3.63;;
39208;SDS011;24929;51.982;4.664;2023-04-25T02:14:42;12.98;;;3.90;;
39208;SDS011;24929;51.982;4.664;2023-04-25T02:17:07;13.32;;;4.88;;
39208;SDS011;24929;51.982;4.664;2023-04-25T02:19:33;11.45;;;4.35;;
39208;SDS011;24929;51.982;4.664;2023-04-25T02:21:58;12.90;;;4.07;;
39208;SDS011;24929;51.982;4.664;2023-04-25T02:24:24;8.70;;;4.05;;
39208;SDS011;24929;51.982;4.664;2023-04-25T02:26:49;3.63;;;2.50;;
39208;SDS011;24929;51.982;4.664;2023-04-25T02:29:15;15.82;;;3.88;;
39208;SDS011;24929;51.982;4.664;2023-04-25T02:31:41;14.35;;;3.60;;
39208;SDS011;24929;51.982;4.664;2023-04-25T02:34:06;14.32;;;3.80;;
39208;SDS011;24929;51.982;4.664;2023-04-25T02:36:32;9.23;;;3.38;;
39208;SDS011;24929;51.982;4.664;2023-04-25T02:38:59;6.63;;;3.53;;
39208;SDS011;24929;51.982;4.664;2023-04-25T02:41:25;4.22;;;2.33;;
39208;SDS011;24929;51.982;4.664;2023-04-25T02:43:51;13.05;;;4.60;;
39208;SDS011;24929;51.982;4.664;2023-04-25T02:46:16;8.75;;;2.90;;
39208;SDS011;24929;51.982;4.664;2023-04-25T02:48:42;9.07;;;2.83;;
39208;SDS011;24929;51.982;4.664;2023-04-25T02:51:07;7.80;;;3.15;;
39208;SDS011;24929;51.982;4.664;2023-04-25T02:53:32;11.27;;;3.42;;
39208;SDS011;24929;51.982;4.664;2023-04-25T02:55:58;9.15;;;2.72;;
39208;SDS011;24929;51.982;4.664;2023-04-25T02:58:24;7.85;;;2.80;;
39208;SDS011;24929;51.982;4.664;2023-04-25T03:00:49;7.53;;;2.40;;
39208;SDS011;24929;51.982;4.664;2023-04-25T03:03:15;9.75;;;2.90;;
39208;SDS011;24929;51.982;4.664;2023-04-25T03:05:42;3.88;;;2.33;;
39208;SDS011;24929;51.982;4.664;2023-04-25T03:08:08;9.55;;;3.25;;
39208;SDS011;24929;51.982;4.664;2023-04-25T03:10:34;12.48;;;2.92;;
39208;SDS011;24929;51.982;4.664;2023-04-25T03:12:59;5.25;;;2.90;;
39208;SDS011;24929;51.982;4.664;2023-04-25T03:15:24;12.30;;;2.33;;
39208;SDS011;24929;51.982;4.664;2023-04-25T03:17:50;15.80;;;2.55;;
39208;SDS011;24929;51.982;4.664;2023-04-25T03:20:15;9.27;;;3.75;;
39208;SDS011;24929;51.982;4.664;2023-04-25T03:22:41;6.70;;;3.35;;
39208;SDS011;24929;51.982;4.664;2023-04-25T03:25:06;12.07;;;3.13;;
39208;SDS011;24929;51.982;4.664;2023-04-25T03:27:32;13.00;;;2.72;;
39208;SDS011;24929;51.982;4.664;2023-04-25T03:29:58;9.13;;;2.75;;
39208;SDS011;24929;51.982;4.664;2023-04-25T03:32:23;4.55;;;2.10;;
39208;SDS011;24929;51.982;4.664;2023-04-25T03:34:49;8.65;;;3.15;;
39208;SDS011;24929;51.982;4.664;2023-04-25T03:37:15;5.03;;;2.35;;
39208;SDS011;24929;51.982;4.664;2023-04-25T03:39:40;3.95;;;2.58;;
39208;SDS011;24929;51.982;4.664;2023-04-25T03:42:05;5.60;;;1.65;;
39208;SDS011;24929;51.982;4.664;2023-04-25T03:44:31;5.35;;;3.00;;
39208;SDS011;24929;51.982;4.664;2023-04-25T03:46:56;12.65;;;2.70;;
39208;SDS011;24929;51.982;4.664;2023-04-25T03:49:22;21.30;;;3.03;;
39208;SDS011;24929;51.982;4.664;2023-04-25T03:51:47;10.43;;;3.00;;
39208;SDS011;24929;51.982;4.664;2023-04-25T03:54:12;11.20;;;2.50;;
39208;SDS011;24929;51.982;4.664;2023-04-25T03:56:38;13.25;;;2.70;;
39208;SDS011;24929;51.982;4.664;2023-04-25T03:59:03;10.57;;;3.70;;
39208;SDS011;24929;51.982;4.664;2023-04-25T04:01:28;7.82;;;2.28;;
39208;SDS011;24929;51.982;4.664;2023-04-25T04:03:54;7.00;;;2.30;;
39208;SDS011;24929;51.982;4.664;2023-04-25T04:06:19;6.00;;;1.75;;
39208;SDS011;24929;51.982;4.664;2023-04-25T04:08:45;8.75;;;2.30;;
39208;SDS011;24929;51.982;4.664;2023-04-25T04:11:11;8.90;;;2.78;;
39208;SDS011;24929;51.982;4.664;2023-04-25T04:13:36;7.50;;;2.28;;
39208;SDS011;24929;51.982;4.664;2023-04-25T04:16:02;7.57;;;1.70;;
39208;SDS011;24929;51.982;4.664;2023-04-25T04:18:29;11.48;;;2.47;;
39208;SDS011;24929;51.982;4.664;2023-04-25T04:20:54;7.18;;;1.75;;
39208;SDS011;24929;51.982;4.664;2023-04-25T04:23:20;8.88;;;1.67;;
39208;SDS011;24929;51.982;4.664;2023-04-25T04:25:45;5.68;;;2.53;;
39208;SDS011;24929;51.982;4.664;2023-04-25T04:28:11;6.35;;;2.05;;
39208;SDS011;24929;51.982;4.664;2023-04-25T04:30:38;5.05;;;2.60;;
39208;SDS011;24929;51.982;4.664;2023-04-25T04:33:04;16.50;;;1.98;;
39208;SDS011;24929;51.982;4.664;2023-04-25T04:35:29;4.13;;;1.98;;
39208;SDS011;24929;51.982;4.664;2023-04-25T04:37:55;4.47;;;1.65;;
39208;SDS011;24929;51.982;4.664;2023-04-25T04:40:21;8.68;;;2.67;;
39208;SDS011;24929;51.982;4.664;2023-04-25T04:42:47;8.68;;;2.20;;
39208;SDS011;24929;51.982;4.664;2023-04-25T04:45:13;9.50;;;3.03;;
39208;SDS011;24929;51.982;4.664;2023-04-25T04:47:39;15.98;;;2.45;;
39208;SDS011;24929;51.982;4.664;2023-04-25T04:50:06;5.75;;;2.25;;
39208;SDS011;24929;51.982;4.664;2023-04-25T04:52:33;7.55;;;2.65;;
39208;SDS011;24929;51.982;4.664;2023-04-25T04:54:59;13.38;;;2.75;;
39208;SDS011;24929;51.982;4.664;2023-04-25T04:57:25;15.52;;;3.15;;
39208;SDS011;24929;51.982;4.664;2023-04-25T04:59:50;7.97;;;1.65;;
39208;SDS011;24929;51.982;4.664;2023-04-25T05:02:16;13.60;;;2.92;;
39208;SDS011;24929;51.982;4.664;2023-04-25T05:04:41;4.70;;;2.00;;
39208;SDS011;24929;51.982;4.664;2023-04-25T05:07:07;11.73;;;2.35;;
39208;SDS011;24929;51.982;4.664;2023-04-25T05:09:32;4.18;;;1.35;;
39208;SDS011;24929;51.982;4.664;2023-04-25T05:11:58;10.38;;;2.10;;
39208;SDS011;24929;51.982;4.664;2023-04-25T05:14:23;13.68;;;2.40;;
39208;SDS011;24929;51.982;4.664;2023-04-25T05:16:48;4.65;;;1.98;;
39208;SDS011;24929;51.982;4.664;2023-04-25T05:19:14;9.60;;;2.38;;
39208;SDS011;24929;51.982;4.664;2023-04-25T05:21:39;6.63;;;1.70;;
39208;SDS011;24929;51.982;4.664;2023-04-25T05:24:05;5.47;;;1.90;;
39208;SDS011;24929;51.982;4.664;2023-04-25T05:26:30;6.65;;;2.10;;
39208;SDS011;24929;51.982;4.664;2023-04-25T05:28:58;6.63;;;2.13;;
39208;SDS011;24929;51.982;4.664;2023-04-25T05:31:24;2.92;;;1.63;;
39208;SDS011;24929;51.982;4.664;2023-04-25T05:33:50;10.23;;;2.17;;
39208;SDS011;24929;51.982;4.664;2023-04-25T05:36:16;1.58;;;1.02;;
39208;SDS011;24929;51.982;4.664;2023-04-25T05:38:43;3.15;;;1.98;;
39208;SDS011;24929;51.982;4.664;2023-04-25T05:41:08;5.63;;;1.50;;
39208;SDS011;24929;51.982;4.664;2023-04-25T05:43:33;4.88;;;2.42;;
39208;SDS011;24929;51.982;4.664;2023-04-25T05:45:59;3.58;;;1.73;;
39208;SDS011;24929;51.982;4.664;2023-04-25T05:48:24;5.07;;;1.92;;
39208;SDS011;24929;51.982;4.664;2023-04-25T05:50:50;8.40;;;2.30;;
39208;SDS011;24929;51.982;4.664;2023-04-25T05:53:16;10.02;;;2.20;;
39208;SDS011;24929;51.982;4.664;2023-04-25T05:55:42;7.53;;;2.92;;
39208;SDS011;24929;51.982;4.664;2023-04-25T05:58:07;3.80;;;1.70;;
39208;SDS011;24929;51.982;4.664;2023-04-25T06:00:33;4.53;;;2.05;;
39208;SDS011;24929;51.982;4.664;2023-04-25T06:03:01;6.78;;;1.60;;
39208;SDS011;24929;51.982;4.664;2023-04-25T06:05:27;5.95;;;2.05;;
39208;SDS011;24929;51.982;4.664;2023-04-25T06:07:52;6.97;;;1.88;;
39208;SDS011;24929;51.982;4.664;2023-04-25T06:10:18;6.30;;;1.92;;
39208;SDS011;24929;51.982;4.664;2023-04-25T06:12:43;7.82;;;1.85;;
39208;SDS011;24929;51.982;4.664;2023-04-25T06:15:09;2.97;;;1.40;;
39208;SDS011;24929;51.982;4.664;2023-04-25T06:17:35;2.58;;;1.38;;
39208;SDS011;24929;51.982;4.664;2023-04-25T06:20:00;3.80;;;1.83;;
39208;SDS011;24929;51.982;4.664;2023-04-25T06:22:26;3.40;;;0.82;;
39208;SDS011;24929;51.982;4.664;2023-04-25T06:24:52;3.55;;;0.88;;
39208;SDS011;24929;51.982;4.664;2023-04-25T06:27:17;1.08;;;1.02;;
39208;SDS011;24929;51.982;4.664;2023-04-25T06:29:42;3.13;;;0.90;;
39208;SDS011;24929;51.982;4.664;2023-04-25T06:32:08;2.95;;;1.00;;
39208;SDS011;24929;51.982;4.664;2023-04-25T06:34:33;3.60;;;1.35;;
39208;SDS011;24929;51.982;4.664;2023-04-25T06:36:58;5.47;;;2.08;;
39208;SDS011;24929;51.982;4.664;2023-04-25T06:39:24;1.67;;;1.20;;
39208;SDS011;24929;51.982;4.664;2023-04-25T06:41:50;4.82;;;1.48;;
39208;SDS011;24929;51.982;4.664;2023-04-25T06:44:17;6.60;;;1.05;;
39208;SDS011;24929;51.982;4.664;2023-04-25T06:46:42;2.00;;;1.27;;
39208;SDS011;24929;51.982;4.664;2023-04-25T06:49:07;1.00;;;0.90;;
39208;SDS011;24929;51.982;4.664;2023-04-25T06:51:33;2.85;;;0.93;;
39208;SDS011;24929;51.982;4.664;2023-04-25T06:53:58;3.00;;;1.65;;
39208;SDS011;24929;51.982;4.664;2023-04-25T06:56:24;2.33;;;1.48;;
39208;SDS011;24929;51.982;4.664;2023-04-25T06:58:49;4.78;;;1.38;;
39208;SDS011;24929;51.982;4.664;2023-04-25T07:01:15;2.78;;;1.00;;
39208;SDS011;24929;51.982;4.664;2023-04-25T07:03:40;1.75;;;0.70;;
39208;SDS011;24929;51.982;4.664;2023-04-25T07:06:05;3.13;;;1.20;;
39208;SDS011;24929;51.982;4.664;2023-04-25T07:08:31;8.88;;;1.58;;
39208;SDS011;24929;51.982;4.664;2023-04-25T07:10:56;1.35;;;1.02;;
39208;SDS011;24929;51.982;4.664;2023-04-25T07:13:22;3.60;;;1.35;;
39208;SDS011;24929;51.982;4.664;2023-04-25T07:15:47;3.20;;;0.95;;
39208;SDS011;24929;51.982;4.664;2023-04-25T07:18:13;7.68;;;1.83;;
39208;SDS011;24929;51.982;4.664;2023-04-25T07:20:39;3.63;;;1.45;;
39208;SDS011;24929;51.982;4.664;2023-04-25T07:23:04;1.73;;;0.82;;
39208;SDS011;24929;51.982;4.664;2023-04-25T07:25:30;3.60;;;1.23;;
39208;SDS011;24929;51.982;4.664;2023-04-25T07:27:55;2.78;;;1.33;;
39208;SDS011;24929;51.982;4.664;2023-04-25T07:30:21;1.48;;;0.90;;
39208;SDS011;24929;51.982;4.664;2023-04-25T07:32:47;1.98;;;0.95;;
39208;SDS011;24929;51.982;4.664;2023-04-25T07:35:13;3.85;;;1.25;;
39208;SDS011;24929;51.982;4.664;2023-04-25T07:37:38;4.35;;;1.25;;
39208;SDS011;24929;51.982;4.664;2023-04-25T07:40:04;1.95;;;0.77;;
39208;SDS011;24929;51.982;4.664;2023-04-25T07:42:30;2.45;;;1.15;;
39208;SDS011;24929;51.982;4.664;2023-04-25T07:44:55;3.85;;;1.42;;
39208;SDS011;24929;51.982;4.664;2023-04-25T07:47:21;8.38;;;1.35;;
39208;SDS011;24929;51.982;4.664;2023-04-25T07:49:46;4.72;;;1.63;;
39208;SDS011;24929;51.982;4.664;2023-04-25T07:52:11;10.23;;;1.67;;
39208;SDS011;24929;51.982;4.664;2023-04-25T07:54:37;2.25;;;0.98;;
39208;SDS011;24929;51.982;4.664;2023-04-25T07:57:02;3.83;;;1.35;;
39208;SDS011;24929;51.982;4.664;2023-04-25T07:59:28;2.90;;;1.38;;
39208;SDS011;24929;51.982;4.664;2023-04-25T08:01:53;4.80;;;1.08;;
39208;SDS011;24929;51.982;4.664;2023-04-25T08:04:19;4.68;;;1.10;;
39208;SDS011;24929;51.982;4.664;2023-04-25T08:06:44;2.63;;;0.68;;
39208;SDS011;24929;51.982;4.664;2023-04-25T08:09:10;2.53;;;0.80;;
39208;SDS011;24929;51.982;4.664;2023-04-25T08:11:36;5.75;;;0.95;;
39208;SDS011;24929;51.982;4.664;2023-04-25T08:14:02;3.95;;;1.52;;
39208;SDS011;24929;51.982;4.664;2023-04-25T08:16:27;5.88;;;0.80;;
39208;SDS011;24929;51.982;4.664;2023-04-25T08:18:53;2.72;;;1.15;;
39208;SDS011;24929;51.982;4.664;2023-04-25T08:21:18;7.93;;;1.25;;
39208;SDS011;24929;51.982;4.664;2023-04-25T08:23:44;4.28;;;1.85;;
39208;SDS011;24929;51.982;4.664;2023-04-25T08:26:10;4.93;;;1.00;;
39208;SDS011;24929;51.982;4.664;2023-04-25T08:28:35;4.45;;;1.08;;
39208;SDS011;24929;51.982;4.664;2023-04-25T08:31:00;2.72;;;0.80;;
39208;SDS011;24929;51.982;4.664;2023-04-25T08:33:26;2.05;;;1.08;;
39208;SDS011;24929;51.982;4.664;2023-04-25T08:35:51;6.57;;;1.33;;
39208;SDS011;24929;51.982;4.664;2023-04-25T08:38:17;1.98;;;0.82;;
39208;SDS011;24929;51.982;4.664;2023-04-25T08:40:43;1.00;;;0.82;;
39208;SDS011;24929;51.982;4.664;2023-04-25T08:43:09;3.55;;;0.90;;
39208;SDS011;24929;51.982;4.664;2023-04-25T08:45:41;3.80;;;1.00;;
39208;SDS011;24929;51.982;4.664;2023-04-25T08:48:07;7.22;;;1.42;;
39208;SDS011;24929;51.982;4.664;2023-04-25T08:50:40;1.73;;;0.50;;
39208;SDS011;24929;51.982;4.664;2023-04-25T08:53:09;1.92;;;0.65;;
39208;SDS011;24929;51.982;4.664;2023-04-25T08:55:41;6.40;;;1.58;;
39208;SDS011;24929;51.982;4.664;2023-04-25T08:58:06;4.72;;;1.42;;
39208;SDS011;24929;51.982;4.664;2023-04-25T09:00:33;5.28;;;1.30;;
39208;SDS011;24929;51.982;4.664;2023-04-25T09:02:59;2.47;;;0.77;;
39208;SDS011;24929;51.982;4.664;2023-04-25T09:05:25;1.35;;;0.73;;
39208;SDS011;24929;51.982;4.664;2023-04-25T09:07:50;3.88;;;0.80;;
39208;SDS011;24929;51.982;4.664;2023-04-25T09:10:16;0.63;;;0.40;;
39208;SDS011;24929;51.982;4.664;2023-04-25T09:12:41;6.10;;;1.15;;
39208;SDS011;24929;51.982;4.664;2023-04-25T09:15:10;3.38;;;0.70;;
39208;SDS011;24929;51.982;4.664;2023-04-25T09:17:36;4.20;;;1.13;;
39208;SDS011;24929;51.982;4.664;2023-04-25T09:20:09;8.80;;;1.05;;
39208;SDS011;24929;51.982;4.664;2023-04-25T09:22:36;2.40;;;0.63;;
39208;SDS011;24929;51.982;4.664;2023-04-25T09:25:11;4.25;;;0.95;;
39208;SDS011;24929;51.982;4.664;2023-04-25T09:27:49;2.53;;;0.50;;
39208;SDS011;24929;51.982;4.664;2023-04-25T09:30:16;2.17;;;0.95;;
39208;SDS011;24929;51.982;4.664;2023-04-25T09:32:43;1.17;;;0.65;;
39208;SDS011;24929;51.982;4.664;2023-04-25T09:35:09;6.38;;;1.02;;
39208;SDS011;24929;51.982;4.664;2023-04-25T09:37:36;2.58;;;0.80;;
39208;SDS011;24929;51.982;4.664;2023-04-25T09:40:04;7.55;;;1.02;;
39208;SDS011;24929;51.982;4.664;2023-04-25T09:42:31;1.02;;;0.55;;
39208;SDS011;24929;51.982;4.664;2023-04-25T09:44:59;4.22;;;1.10;;
39208;SDS011;24929;51.982;4.664;2023-04-25T09:47:26;1.63;;;0.70;;
39208;SDS011;24929;51.982;4.664;2023-04-25T09:49:53;1.58;;;0.60;;
39208;SDS011;24929;51.982;4.664;2023-04-25T09:52:20;0.68;;;0.52;;
39208;SDS011;24929;51.982;4.664;2023-04-25T09:54:47;2.28;;;0.82;;
39208;SDS011;24929;51.982;4.664;2023-04-25T09:57:20;4.50;;;1.00;;
39208;SDS011;24929;51.982;4.664;2023-04-25T09:59:47;2.17;;;0.90;;
39208;SDS011;24929;51.982;4.664;2023-04-25T10:02:18;1.33;;;0.50;;
39208;SDS011;24929;51.982;4.664;2023-04-25T10:04:47;1.55;;;0.77;;
39208;SDS011;24929;51.982;4.664;2023-04-25T10:07:15;3.55;;;0.95;;
39208;SDS011;24929;51.982;4.664;2023-04-25T10:09:41;5.85;;;1.13;;
39208;SDS011;24929;51.982;4.664;2023-04-25T10:12:07;3.80;;;0.70;;
39208;SDS011;24929;51.982;4.664;2023-04-25T10:14:33;4.80;;;1.05;;
39208;SDS011;24929;51.982;4.664;2023-04-25T10:16:59;7.68;;;1.08;;
39208;SDS011;24929;51.982;4.664;2023-04-25T10:19:26;9.52;;;1.38;;
39208;SDS011;24929;51.982;4.664;2023-04-25T10:21:54;4.35;;;1.13;;
39208;SDS011;24929;51.982;4.664;2023-04-25T10:24:27;2.67;;;1.08;;
39208;SDS011;24929;51.982;4.664;2023-04-25T10:26:53;3.03;;;1.23;;
39208;SDS011;24929;51.982;4.664;2023-04-25T10:29:23;9.57;;;1.05;;
39208;SDS011;24929;51.982;4.664;2023-04-25T10:31:49;11.02;;;1.00;;
39208;SDS011;24929;51.982;4.664;2023-04-25T10:34:15;3.10;;;1.58;;
39208;SDS011;24929;51.982;4.664;2023-04-25T10:36:41;5.03;;;1.08;;
39208;SDS011;24929;51.982;4.664;2023-04-25T10:39:07;4.50;;;0.93;;
39208;SDS011;24929;51.982;4.664;2023-04-25T10:41:46;10.00;;;1.65;;
39208;SDS011;24929;51.982;4.664;2023-04-25T10:44:13;8.35;;;1.17;;
39208;SDS011;24929;51.982;4.664;2023-04-25T10:46:39;6.78;;;1.40;;
39208;SDS011;24929;51.982;4.664;2023-04-25T10:49:04;1.55;;;0.93;;
39208;SDS011;24929;51.982;4.664;2023-04-25T10:51:33;3.30;;;1.55;;
39208;SDS011;24929;51.982;4.664;2023-04-25T10:54:02;4.03;;;1.25;;
39208;SDS011;24929;51.982;4.664;2023-04-25T10:56:29;4.32;;;1.80;;
39208;SDS011;24929;51.982;4.664;2023-04-25T10:59:10;5.68;;;1.92;;
39208;SDS011;24929;51.982;4.664;2023-04-25T11:01:43;4.57;;;1.33;;
39208;SDS011;24929;51.982;4.664;2023-04-25T11:04:23;3.17;;;0.63;;
39208;SDS011;24929;51.982;4.664;2023-04-25T11:09:35;2.45;;;0.50;;
39208;SDS011;24929;51.982;4.664;2023-04-25T11:12:03;0.93;;;0.50;;
39208;SDS011;24929;51.982;4.664;2023-04-25T11:14:29;4.03;;;0.93;;
39208;SDS011;24929;51.982;4.664;2023-04-25T11:16:58;1.85;;;0.68;;
39208;SDS011;24929;51.982;4.664;2023-04-25T11:19:25;4.70;;;1.10;;
39208;SDS011;24929;51.982;4.664;2023-04-25T11:21:55;3.88;;;1.25;;
39208;SDS011;24929;51.982;4.664;2023-04-25T11:24:31;1.27;;;0.80;;
39208;SDS011;24929;51.982;4.664;2023-04-25T11:26:58;5.43;;;1.50;;
39208;SDS011;24929;51.982;4.664;2023-04-25T11:29:27;5.32;;;1.25;;
39208;SDS011;24929;51.982;4.664;2023-04-25T11:31:54;9.30;;;1.48;;
39208;SDS011;24929;51.982;4.664;2023-04-25T11:34:27;5.35;;;1.00;;
39208;SDS011;24929;51.982;4.664;2023-04-25T11:36:55;4.32;;;1.05;;
39208;SDS011;24929;51.982;4.664;2023-04-25T11:39:21;2.17;;;0.70;;
39208;SDS011;24929;51.982;4.664;2023-04-25T11:41:52;3.30;;;1.10;;
39208;SDS011;24929;51.982;4.664;2023-04-25T11:44:18;7.97;;;1.20;;
39208;SDS011;24929;51.982;4.664;2023-04-25T11:46:44;2.65;;;1.00;;
39208;SDS011;24929;51.982;4.664;2023-04-25T11:49:11;2.28;;;1.15;;
39208;SDS011;24929;51.982;4.664;2023-04-25T11:51:43;4.10;;;0.95;;
39208;SDS011;24929;51.982;4.664;2023-04-25T11:54:11;3.55;;;0.80;;
39208;SDS011;24929;51.982;4.664;2023-04-25T11:56:37;3.17;;;1.38;;
39208;SDS011;24929;51.982;4.664;2023-04-25T11:59:03;0.73;;;0.50;;
39208;SDS011;24929;51.982;4.664;2023-04-25T12:01:40;3.50;;;1.08;;
39208;SDS011;24929;51.982;4.664;2023-04-25T12:06:40;3.45;;;1.20;;
39208;SDS011;24929;51.982;4.664;2023-04-25T12:09:07;4.32;;;1.60;;
39208;SDS011;24929;51.982;4.664;2023-04-25T12:11:45;2.17;;;1.25;;
39208;SDS011;24929;51.982;4.664;2023-04-25T12:14:19;1.90;;;0.82;;
39208;SDS011;24929;51.982;4.664;2023-04-25T12:16:48;3.35;;;1.33;;
39208;SDS011;24929;51.982;4.664;2023-04-25T12:19:14;3.75;;;0.75;;
39208;SDS011;24929;51.982;4.664;2023-04-25T12:21:40;3.55;;;1.20;;
39208;SDS011;24929;51.982;4.664;2023-04-25T12:24:12;3.63;;;0.98;;
39208;SDS011;24929;51.982;4.664;2023-04-25T12:26:49;3.67;;;1.10;;
39208;SDS011;24929;51.982;4.664;2023-04-25T12:29:22;7.03;;;0.52;;
39208;SDS011;24929;51.982;4.664;2023-04-25T12:31:49;4.20;;;1.10;;
39208;SDS011;24929;51.982;4.664;2023-04-25T12:34:16;1.40;;;0.65;;
39208;SDS011;24929;51.982;4.664;2023-04-25T12:36:41;4.70;;;1.30;;
39208;SDS011;24929;51.982;4.664;2023-04-25T12:39:06;7.88;;;1.50;;
39208;SDS011;24929;51.982;4.664;2023-04-25T12:41:33;0.90;;;0.57;;
39208;SDS011;24929;51.982;4.664;2023-04-25T12:43:58;5.70;;;1.65;;
39208;SDS011;24929;51.982;4.664;2023-04-25T12:46:24;1.23;;;0.57;;
39208;SDS011;24929;51.982;4.664;2023-04-25T12:48:52;1.17;;;0.70;;
39208;SDS011;24929;51.982;4.664;2023-04-25T12:51:18;3.08;;;1.23;;
39208;SDS011;24929;51.982;4.664;2023-04-25T12:53:43;1.17;;;0.60;;
39208;SDS011;24929;51.982;4.664;2023-04-25T12:56:08;2.45;;;1.25;;
39208;SDS011;24929;51.982;4.664;2023-04-25T12:58:34;3.75;;;0.90;;
39208;SDS011;24929;51.982;4.664;2023-04-25T13:00:59;1.75;;;0.70;;
39208;SDS011;24929;51.982;4.664;2023-04-25T13:03:25;3.88;;;0.85;;
39208;SDS011;24929;51.982;4.664;2023-04-25T13:05:50;1.98;;;0.90;;
39208;SDS011;24929;51.982;4.664;2023-04-25T13:08:17;3.13;;;0.90;;
39208;SDS011;24929;51.982;4.664;2023-04-25T13:10:45;2.40;;;0.93;;
39208;SDS011;24929;51.982;4.664;2023-04-25T13:13:12;3.17;;;0.85;;
39208;SDS011;24929;51.982;4.664;2023-04-25T13:15:38;1.92;;;0.82;;
39208;SDS011;24929;51.982;4.664;2023-04-25T13:18:03;2.67;;;1.20;;
39208;SDS011;24929;51.982;4.664;2023-04-25T13:20:30;2.65;;;1.10;;
39208;SDS011;24929;51.982;4.664;2023-04-25T13:22:56;2.38;;;0.82;;
39208;SDS011;24929;51.982;4.664;2023-04-25T13:25:22;1.38;;;0.85;;
39208;SDS011;24929;51.982;4.664;2023-04-25T13:27:47;0.80;;;0.52;;
39208;SDS011;24929;51.982;4.664;2023-04-25T13:30:13;2.92;;;1.10;;
39208;SDS011;24929;51.982;4.664;2023-04-25T13:32:39;2.00;;;0.90;;
39208;SDS011;24929;51.982;4.664;2023-04-25T13:35:05;4.35;;;1.10;;
39208;SDS011;24929;51.982;4.664;2023-04-25T13:37:33;2.42;;;1.05;;
39208;SDS011;24929;51.982;4.664;2023-04-25T13:40:02;3.47;;;1.10;;
39208;SDS011;24929;51.982;4.664;2023-04-25T13:42:30;4.47;;;1.30;;
39208;SDS011;24929;51.982;4.664;2023-04-25T13:44:56;1.83;;;0.88;;
39208;SDS011;24929;51.982;4.664;2023-04-25T13:47:22;1.63;;;1.15;;
39208;SDS011;24929;51.982;4.664;2023-04-25T13:49:48;3.72;;;1.15;;
39208;SDS011;24929;51.982;4.664;2023-04-25T13:52:16;3.60;;;1.33;;
39208;SDS011;24929;51.982;4.664;2023-04-25T13:54:42;2.85;;;1.27;;
39208;SDS011;24929;51.982;4.664;2023-04-25T13:57:07;2.17;;;1.23;;
39208;SDS011;24929;51.982;4.664;2023-04-25T13:59:33;4.38;;;1.15;;
39208;SDS011;24929;51.982;4.664;2023-04-25T14:01:58;4.03;;;1.58;;
39208;SDS011;24929;51.982;4.664;2023-04-25T14:04:24;3.22;;;1.15;;
39208;SDS011;24929;51.982;4.664;2023-04-25T14:06:50;8.13;;;1.58;;
39208;SDS011;24929;51.982;4.664;2023-04-25T14:09:16;2.92;;;1.30;;
39208;SDS011;24929;51.982;4.664;2023-04-25T14:11:42;7.47;;;1.05;;
39208;SDS011;24929;51.982;4.664;2023-04-25T14:14:07;2.30;;;0.60;;
39208;SDS011;24929;51.982;4.664;2023-04-25T14:16:33;2.20;;;1.00;;
39208;SDS011;24929;51.982;4.664;2023-04-25T14:18:59;1.60;;;0.63;;
39208;SDS011;24929;51.982;4.664;2023-04-25T14:21:25;5.57;;;1.48;;
39208;SDS011;24929;51.982;4.664;2023-04-25T14:23:51;1.02;;;0.82;;
39208;SDS011;24929;51.982;4.664;2023-04-25T14:26:17;4.80;;;1.45;;
39208;SDS011;24929;51.982;4.664;2023-04-25T14:28:42;1.42;;;0.90;;
39208;SDS011;24929;51.982;4.664;2023-04-25T14:31:08;2.67;;;1.27;;
39208;SDS011;24929;51.982;4.664;2023-04-25T14:33:34;3.97;;;0.75;;
39208;SDS011;24929;51.982;4.664;2023-04-25T14:35:59;4.30;;;1.23;;
39208;SDS011;24929;51.982;4.664;2023-04-25T14:38:25;5.20;;;1.33;;
39208;SDS011;24929;51.982;4.664;2023-04-25T14:40:51;0.68;;;0.45;;
39208;SDS011;24929;51.982;4.664;2023-04-25T14:43:18;3.38;;;1.20;;
39208;SDS011;24929;51.982;4.664;2023-04-25T14:45:44;1.08;;;0.65;;